createdAt,value
2018-09-15T00:00:20.834Z,22.50
2018-09-15T00:02:51.469Z,22.50
2018-09-15T00:05:20.004Z,22.50
2018-09-15T00:07:49.090Z,22.50
2018-09-15T00:10:17.495Z,22.50
2018-09-15T00:12:46.890Z,22.50
2018-09-15T00:15:15.210Z,22.50
2018-09-15T00:17:45.433Z,22.40
2018-09-15T00:20:13.652Z,22.40
2018-09-15T00:22:42.998Z,22.40
2018-09-15T00:25:11.274Z,22.40
2018-09-15T00:27:40.548Z,22.40
2018-09-15T00:30:08.900Z,22.40
2018-09-15T00:32:37.270Z,22.40
2018-09-15T00:35:05.607Z,22.40
2018-09-15T00:37:33.892Z,22.40
2018-09-15T00:40:02.224Z,22.40
2018-09-15T00:42:30.572Z,22.40
2018-09-15T00:44:58.858Z,22.40
2018-09-15T00:47:27.149Z,22.40
2018-09-15T00:49:56.502Z,22.40
2018-09-15T00:52:24.821Z,22.40
2018-09-15T00:54:53.195Z,22.40
2018-09-15T00:57:21.532Z,22.40
2018-09-15T00:59:49.840Z,22.40
2018-09-15T01:02:18.083Z,22.40
2018-09-15T01:04:46.409Z,22.40
2018-09-15T01:07:15.769Z,22.40
2018-09-15T01:09:44.132Z,22.40
2018-09-15T01:12:12.421Z,22.40
2018-09-15T01:14:40.721Z,22.40
2018-09-15T01:17:09.024Z,22.40
2018-09-15T01:19:37.308Z,22.40
2018-09-15T01:22:05.605Z,22.40
2018-09-15T01:24:33.896Z,22.40
2018-09-15T01:27:02.285Z,22.50
2018-09-15T01:29:31.646Z,22.40
2018-09-15T01:31:59.978Z,22.50
2018-09-15T01:34:28.220Z,22.50
2018-09-15T01:36:57.610Z,22.50
2018-09-15T01:39:25.926Z,22.50
2018-09-15T01:41:54.453Z,22.50
2018-09-15T01:44:22.758Z,22.60
2018-09-15T01:46:51.046Z,22.50
2018-09-15T01:49:19.342Z,22.50
2018-09-15T01:51:47.609Z,22.60
2018-09-15T01:54:15.893Z,22.60
2018-09-15T01:56:44.188Z,22.50
2018-09-15T01:59:12.482Z,22.50
2018-09-15T02:01:40.774Z,22.50
2018-09-15T02:04:09.520Z,22.50
2018-09-15T02:06:38.225Z,22.50
2018-09-15T02:09:10.603Z,22.50
2018-09-15T02:11:38.924Z,22.60
2018-09-15T02:14:07.195Z,22.50
2018-09-15T02:16:36.507Z,22.50
2018-09-15T02:19:04.772Z,22.50
2018-09-15T02:21:33.116Z,22.50
2018-09-15T02:24:01.391Z,22.40
2018-09-15T02:26:29.693Z,22.50
2018-09-15T02:28:58.139Z,22.40
2018-09-15T02:31:26.373Z,22.40
2018-09-15T02:33:54.684Z,22.40
2018-09-15T02:36:22.965Z,22.40
2018-09-15T02:38:51.292Z,22.40
2018-09-15T02:41:19.570Z,22.40
2018-09-15T02:43:48.091Z,22.40
2018-09-15T02:46:16.679Z,22.40
2018-09-15T02:48:45.081Z,22.40
2018-09-15T02:51:13.612Z,22.40
2018-09-15T02:53:43.001Z,22.40
2018-09-15T02:56:11.261Z,22.40
2018-09-15T02:58:39.555Z,22.30
2018-09-15T03:01:07.914Z,22.30
2018-09-15T03:03:36.286Z,22.30
2018-09-15T03:06:04.567Z,22.30
2018-09-15T03:08:32.855Z,22.40
2018-09-15T03:11:07.830Z,22.40
2018-09-15T03:13:36.139Z,22.40
2018-09-15T03:16:04.473Z,22.30
2018-09-15T03:18:32.779Z,22.30
2018-09-15T03:21:01.120Z,22.30
2018-09-15T03:23:29.419Z,22.30
2018-09-15T03:25:57.737Z,22.30
2018-09-15T03:28:26.022Z,22.30
2018-09-15T03:30:55.118Z,22.30
2018-09-15T03:33:23.487Z,22.20
2018-09-15T03:35:51.848Z,22.30
2018-09-15T03:38:20.143Z,22.30
2018-09-15T03:40:48.450Z,22.30
2018-09-15T03:43:17.776Z,22.20
2018-09-15T03:45:46.089Z,22.30
2018-09-15T03:48:14.396Z,22.30
2018-09-15T03:50:42.681Z,22.30
2018-09-15T03:53:10.989Z,22.30
2018-09-15T03:55:39.283Z,22.30
2018-09-15T03:58:07.578Z,22.20
2018-09-15T04:00:35.880Z,22.20
2018-09-15T04:03:05.202Z,22.30
2018-09-15T04:05:33.519Z,22.30
2018-09-15T04:08:01.866Z,22.30
2018-09-15T04:10:30.163Z,22.30
2018-09-15T04:12:58.505Z,22.30
2018-09-15T04:15:26.814Z,22.30
2018-09-15T04:17:55.138Z,22.30
2018-09-15T04:20:23.429Z,22.30
2018-09-15T04:22:51.678Z,22.20
2018-09-15T04:25:19.959Z,22.20
2018-09-15T04:27:48.221Z,22.20
2018-09-15T04:30:16.545Z,22.20
2018-09-15T04:32:44.873Z,22.30
2018-09-15T04:35:13.162Z,22.30
2018-09-15T04:37:41.458Z,22.30
2018-09-15T04:40:09.838Z,22.30
2018-09-15T04:42:38.158Z,22.30
2018-09-15T04:45:06.625Z,22.30
2018-09-15T04:47:34.987Z,22.20
2018-09-15T04:50:03.391Z,22.20
2018-09-15T04:52:31.707Z,22.20
2018-09-15T04:54:59.989Z,22.20
2018-09-15T04:57:28.439Z,22.30
2018-09-15T04:59:56.717Z,22.20
2018-09-15T05:02:25.089Z,22.20
2018-09-15T05:04:53.391Z,22.20
2018-09-15T05:07:21.681Z,22.20
2018-09-15T05:09:49.973Z,22.20
2018-09-15T05:12:18.609Z,22.20
2018-09-15T05:14:46.912Z,22.10
2018-09-15T05:17:15.223Z,22.20
2018-09-15T05:19:43.496Z,22.10
2018-09-15T05:22:11.814Z,22.10
2018-09-15T05:24:40.111Z,22.10
2018-09-15T05:27:08.430Z,22.10
2018-09-15T05:29:36.799Z,22.00
2018-09-15T05:32:05.113Z,22.10
2018-09-15T05:34:33.450Z,22.10
2018-09-15T05:37:01.793Z,22.10
2018-09-15T05:39:30.122Z,22.10
2018-09-15T05:41:58.457Z,22.10
2018-09-15T05:44:26.806Z,22.10
2018-09-15T05:47:01.646Z,22.10
2018-09-15T05:49:30.307Z,22.10
2018-09-15T05:51:58.630Z,22.10
2018-09-15T05:54:28.002Z,22.10
2018-09-15T05:56:57.305Z,22.10
2018-09-15T05:59:26.728Z,22.00
2018-09-15T06:01:55.021Z,22.10
2018-09-15T06:04:23.336Z,22.00
2018-09-15T06:06:51.666Z,22.00
2018-09-15T06:09:19.933Z,22.00
2018-09-15T06:11:49.257Z,21.90
2018-09-15T06:14:17.530Z,21.90
2018-09-15T06:16:45.877Z,21.90
2018-09-15T06:19:14.196Z,21.90
2018-09-15T06:21:42.529Z,21.90
2018-09-15T06:24:11.865Z,21.90
2018-09-15T06:26:40.153Z,21.90
2018-09-15T06:29:08.509Z,21.90
2018-09-15T06:31:37.822Z,21.90
2018-09-15T06:34:06.361Z,21.80
2018-09-15T06:36:35.751Z,21.90
2018-09-15T06:39:06.030Z,21.90
2018-09-15T06:41:35.324Z,21.80
2018-09-15T06:44:03.593Z,21.80
2018-09-15T06:46:34.592Z,21.90
2018-09-15T06:49:02.913Z,21.80
2018-09-15T06:51:31.301Z,21.80
2018-09-15T06:54:00.632Z,21.90
2018-09-15T06:58:57.125Z,21.80
2018-09-15T07:01:25.522Z,21.80
2018-09-15T07:03:53.879Z,21.80
2018-09-15T07:06:22.191Z,21.80
2018-09-15T07:08:50.524Z,21.80
2018-09-15T07:11:19.854Z,21.90
2018-09-15T07:13:48.159Z,21.80
2018-09-15T07:16:16.440Z,21.90
2018-09-15T07:18:44.772Z,21.90
2018-09-15T07:21:13.078Z,21.90
2018-09-15T07:23:41.326Z,21.90
2018-09-15T07:26:09.662Z,21.90
2018-09-15T07:28:37.999Z,21.90
2018-09-15T07:31:06.345Z,21.90
2018-09-15T07:33:35.673Z,21.90
2018-09-15T07:36:04.258Z,21.90
2018-09-15T07:38:32.601Z,21.90
2018-09-15T07:41:00.900Z,22.00
2018-09-15T07:43:29.183Z,22.00
2018-09-15T07:45:58.541Z,22.00
2018-09-15T07:48:26.917Z,22.00
2018-09-15T07:50:55.266Z,22.00
2018-09-15T07:53:23.582Z,22.00
2018-09-15T07:55:51.901Z,22.10
2018-09-15T07:58:20.230Z,22.10
2018-09-15T08:00:48.525Z,22.00
2018-09-15T08:03:16.902Z,22.10
2018-09-15T08:05:45.193Z,22.10
2018-09-15T08:08:14.534Z,22.10
2018-09-15T08:10:42.853Z,22.10
2018-09-15T08:13:12.215Z,22.10
2018-09-15T08:15:40.518Z,22.10
2018-09-15T08:18:08.789Z,22.20
2018-09-15T08:20:37.149Z,22.20
2018-09-15T08:23:05.429Z,22.20
2018-09-15T08:25:33.759Z,22.20
2018-09-15T08:28:03.701Z,22.20
2018-09-15T08:30:33.813Z,22.20
2018-09-15T08:33:02.914Z,22.30
2018-09-15T08:35:31.964Z,22.30
2018-09-15T08:38:01.252Z,22.30
2018-09-15T08:40:30.587Z,22.30
2018-09-15T08:42:59.591Z,22.30
2018-09-15T08:45:29.304Z,22.30
2018-09-15T08:47:57.672Z,22.30
2018-09-15T08:50:25.970Z,22.40
2018-09-15T08:52:54.285Z,22.40
2018-09-15T08:55:22.575Z,22.40
2018-09-15T08:57:50.936Z,22.40
2018-09-15T09:00:19.373Z,22.40
2018-09-15T09:02:49.432Z,22.40
2018-09-15T09:05:18.469Z,22.40
2018-09-15T09:07:47.625Z,22.40
2018-09-15T09:10:16.992Z,22.40
2018-09-15T09:12:46.020Z,22.50
2018-09-15T09:15:15.049Z,22.50
2018-09-15T09:17:44.034Z,22.40
2018-09-15T09:20:13.137Z,22.50
2018-09-15T09:22:42.103Z,22.50
2018-09-15T09:25:11.566Z,22.50
2018-09-15T09:27:39.902Z,22.50
2018-09-15T09:30:08.328Z,22.40
2018-09-15T09:32:36.573Z,22.50
2018-09-15T09:35:04.896Z,22.50
2018-09-15T09:37:33.245Z,22.50
2018-09-15T09:40:01.531Z,22.50
2018-09-15T09:42:29.828Z,22.50
2018-09-15T09:44:58.142Z,22.50
2018-09-15T09:47:27.449Z,22.50
2018-09-15T09:49:55.801Z,22.50
2018-09-15T09:52:25.152Z,22.50
2018-09-15T09:54:53.414Z,22.60
2018-09-15T09:57:21.720Z,22.50
2018-09-15T09:59:50.046Z,22.50
2018-09-15T10:02:23.602Z,22.60
2018-09-15T10:04:52.198Z,22.50
2018-09-15T10:07:20.765Z,22.50
2018-09-15T10:09:49.191Z,22.50
2018-09-15T10:12:17.509Z,22.60
2018-09-15T10:14:52.267Z,22.60
2018-09-15T10:17:20.577Z,22.50
2018-09-15T10:19:48.878Z,22.50
2018-09-15T10:22:17.188Z,22.50
2018-09-15T10:24:45.490Z,22.60
2018-09-15T10:27:13.792Z,22.60
2018-09-15T10:29:42.223Z,22.60
2018-09-15T10:32:10.659Z,22.60
2018-09-15T10:34:38.817Z,22.60
2018-09-15T10:37:07.175Z,22.60
2018-09-15T10:39:35.409Z,22.60
2018-09-15T10:42:03.723Z,22.50
2018-09-15T10:44:32.001Z,22.60
2018-09-15T10:47:01.317Z,22.60
2018-09-15T10:49:29.650Z,22.60
2018-09-15T10:51:59.069Z,22.60
2018-09-15T10:54:27.434Z,22.60
2018-09-15T10:56:55.746Z,22.60
2018-09-15T10:59:24.053Z,22.60
2018-09-15T11:01:53.433Z,22.60
2018-09-15T11:04:21.797Z,22.60
2018-09-15T11:06:50.122Z,22.60
2018-09-15T11:09:18.417Z,22.60
2018-09-15T11:11:46.725Z,22.60
2018-09-15T11:14:15.029Z,22.60
2018-09-15T11:16:43.325Z,22.60
2018-09-15T11:19:11.643Z,22.60
2018-09-15T11:21:39.949Z,22.60
2018-09-15T11:24:08.257Z,22.60
2018-09-15T11:26:36.550Z,22.60
2018-09-15T11:29:04.946Z,22.60
2018-09-15T11:31:34.221Z,22.60
2018-09-15T11:34:02.584Z,22.60
2018-09-15T11:36:30.857Z,22.60
2018-09-15T11:38:59.155Z,22.60
2018-09-15T11:41:28.486Z,22.60
2018-09-15T11:43:56.773Z,22.60
2018-09-15T11:46:25.077Z,22.60
2018-09-15T11:48:53.397Z,22.60
2018-09-15T11:51:22.707Z,22.60
2018-09-15T11:53:51.045Z,22.60
2018-09-15T11:56:19.345Z,22.60
2018-09-15T11:58:48.565Z,22.60
2018-09-15T12:01:16.889Z,22.70
2018-09-15T12:03:45.250Z,22.70
2018-09-15T12:06:13.558Z,22.70
2018-09-15T12:08:41.874Z,22.60
2018-09-15T12:11:10.277Z,22.60
2018-09-15T12:13:39.653Z,22.70
2018-09-15T12:16:08.569Z,22.70
2018-09-15T12:18:36.869Z,22.70
2018-09-15T12:21:06.210Z,22.70
2018-09-15T12:23:35.579Z,22.70
2018-09-15T12:26:03.895Z,22.70
2018-09-15T12:28:32.203Z,22.70
2018-09-15T12:31:00.501Z,22.70
2018-09-15T12:33:29.052Z,22.70
2018-09-15T12:35:57.301Z,22.70
2018-09-15T12:38:25.624Z,22.70
2018-09-15T12:40:53.931Z,22.70
2018-09-15T12:43:23.275Z,22.70
2018-09-15T12:45:51.577Z,22.70
2018-09-15T12:48:19.944Z,22.70
2018-09-15T12:50:48.274Z,22.70
2018-09-15T12:53:16.578Z,22.80
2018-09-15T12:55:44.919Z,22.80
2018-09-15T12:58:13.291Z,22.80
2018-09-15T13:00:41.619Z,22.80
2018-09-15T13:03:09.937Z,22.80
2018-09-15T13:05:38.245Z,22.80
2018-09-15T13:08:06.556Z,22.80
2018-09-15T13:10:34.844Z,22.80
2018-09-15T13:13:03.118Z,22.80
2018-09-15T13:15:31.581Z,22.90
2018-09-15T13:17:59.792Z,22.80
2018-09-15T13:20:29.193Z,22.90
2018-09-15T13:22:57.478Z,22.90
2018-09-15T13:25:26.817Z,22.80
2018-09-15T13:27:55.222Z,22.80
2018-09-15T13:30:23.644Z,22.80
2018-09-15T13:32:51.852Z,22.90
2018-09-15T13:35:20.151Z,22.80
2018-09-15T13:37:48.499Z,22.80
2018-09-15T13:40:16.798Z,22.80
2018-09-15T13:42:45.124Z,22.80
2018-09-15T13:45:13.510Z,22.90
2018-09-15T13:47:42.809Z,22.90
2018-09-15T13:50:11.111Z,22.90
2018-09-15T13:52:40.505Z,22.90
2018-09-15T13:55:08.930Z,22.90
2018-09-15T13:57:38.270Z,22.90
2018-09-15T14:00:06.974Z,22.90
2018-09-15T14:02:40.498Z,22.90
2018-09-15T14:05:09.394Z,22.90
2018-09-15T14:07:37.656Z,22.90
2018-09-15T14:10:07.044Z,22.90
2018-09-15T14:12:34.373Z,22.90
2018-09-15T14:15:03.794Z,22.90
2018-09-15T14:17:32.278Z,22.90
2018-09-15T14:20:00.994Z,22.90
2018-09-15T14:22:29.353Z,22.90
2018-09-15T14:24:57.697Z,22.90
2018-09-15T14:27:26.009Z,23.00
2018-09-15T14:29:54.442Z,22.90
2018-09-15T14:32:22.750Z,23.00
2018-09-15T14:34:51.096Z,23.00
2018-09-15T14:37:19.396Z,23.00
2018-09-15T14:39:47.765Z,23.00
2018-09-15T14:42:16.161Z,23.00
2018-09-15T14:44:45.457Z,23.00
2018-09-15T14:47:13.832Z,23.00
2018-09-15T14:49:42.117Z,23.00
2018-09-15T14:52:10.458Z,23.00
2018-09-15T14:54:38.766Z,23.00
2018-09-15T14:57:07.093Z,23.00
2018-09-15T14:59:35.423Z,23.00
2018-09-15T15:02:03.735Z,23.00
2018-09-15T15:04:32.091Z,23.00
2018-09-15T15:07:00.409Z,23.00
2018-09-15T15:09:28.719Z,23.00
2018-09-15T15:11:57.020Z,23.00
2018-09-15T15:14:25.333Z,23.10
2018-09-15T15:16:53.635Z,23.10
2018-09-15T15:19:21.959Z,23.10
2018-09-15T15:21:50.259Z,23.10
2018-09-15T15:24:18.594Z,23.10
2018-09-15T15:26:46.904Z,23.10
2018-09-15T15:29:15.345Z,23.10
2018-09-15T15:31:43.640Z,23.10
2018-09-15T15:34:11.979Z,23.10
2018-09-15T15:36:40.275Z,23.10
2018-09-15T15:39:09.039Z,23.10
2018-09-15T15:41:37.364Z,23.10
2018-09-15T15:44:05.734Z,23.10
2018-09-15T15:46:35.109Z,23.10
2018-09-15T15:49:03.982Z,23.10
2018-09-15T15:51:33.563Z,23.10
2018-09-15T15:54:01.763Z,23.10
2018-09-15T15:56:31.116Z,23.10
2018-09-15T15:58:59.425Z,23.10
2018-09-15T16:01:27.772Z,23.10
2018-09-15T16:03:56.117Z,23.20
2018-09-15T16:06:24.626Z,23.20
2018-09-15T16:08:52.928Z,23.20
2018-09-15T16:11:21.942Z,23.20
2018-09-15T16:13:50.835Z,23.20
2018-09-15T16:16:19.208Z,23.20
2018-09-15T16:18:47.553Z,23.20
2018-09-15T16:21:15.840Z,23.20
2018-09-15T16:23:45.205Z,23.20
2018-09-15T16:26:13.498Z,23.20
2018-09-15T16:28:41.817Z,23.20
2018-09-15T16:31:10.110Z,23.20
2018-09-15T16:33:39.711Z,23.20
2018-09-15T16:36:09.013Z,23.20
2018-09-15T16:38:37.361Z,23.20
2018-09-15T16:41:05.726Z,23.30
2018-09-15T16:43:34.098Z,23.20
2018-09-15T16:46:02.406Z,23.20
2018-09-15T16:48:30.702Z,23.20
2018-09-15T16:50:59.011Z,23.20
2018-09-15T16:53:27.297Z,23.20
2018-09-15T16:55:55.595Z,23.30
2018-09-15T16:58:23.905Z,23.30
2018-09-15T17:00:52.184Z,23.30
2018-09-15T17:03:20.528Z,23.20
2018-09-15T17:05:48.845Z,23.30
2018-09-15T17:08:17.136Z,23.30
2018-09-15T17:10:45.474Z,23.30
2018-09-15T17:13:13.794Z,23.20
2018-09-15T17:15:42.125Z,23.20
2018-09-15T17:18:10.499Z,23.20
2018-09-15T17:20:38.789Z,23.20
2018-09-15T17:23:07.890Z,23.20
2018-09-15T17:25:36.369Z,23.20
2018-09-15T17:28:04.673Z,23.20
2018-09-15T17:30:32.983Z,23.20
2018-09-15T17:33:01.301Z,23.10
2018-09-15T17:35:29.642Z,23.20
2018-09-15T17:37:57.950Z,23.10
2018-09-15T17:40:26.266Z,23.20
2018-09-15T17:42:54.570Z,23.10
2018-09-15T17:45:22.973Z,23.10
2018-09-15T17:47:51.230Z,23.10
2018-09-15T17:50:19.537Z,23.20
2018-09-15T17:52:47.852Z,23.10
2018-09-15T17:55:16.337Z,23.10
2018-09-15T17:57:44.717Z,23.10
2018-09-15T18:00:14.144Z,23.10
2018-09-15T18:02:42.518Z,23.10
2018-09-15T18:05:10.820Z,23.10
2018-09-15T18:07:39.137Z,23.10
2018-09-15T18:10:07.554Z,23.10
2018-09-15T18:12:36.260Z,23.10
2018-09-15T18:15:04.714Z,23.10
2018-09-15T18:17:33.032Z,23.10
2018-09-15T18:20:01.351Z,23.10
2018-09-15T18:22:29.675Z,23.10
2018-09-15T18:24:57.967Z,23.10
2018-09-15T18:27:26.303Z,23.10
2018-09-15T18:29:54.617Z,23.10
2018-09-15T18:32:22.950Z,23.10
2018-09-15T18:34:51.288Z,23.10
2018-09-15T18:37:19.658Z,23.10
2018-09-15T18:39:48.003Z,23.10
2018-09-15T18:42:16.271Z,23.10
2018-09-15T18:44:44.590Z,23.10
2018-09-15T18:47:12.907Z,23.10
2018-09-15T18:49:41.281Z,23.10
2018-09-15T18:52:09.566Z,23.10
2018-09-15T18:54:38.026Z,23.10
2018-09-15T18:57:06.270Z,23.10
2018-09-15T18:59:34.685Z,23.10
2018-09-15T19:02:02.986Z,23.10
2018-09-15T19:04:31.354Z,23.10
2018-09-15T19:06:59.635Z,23.10
2018-09-15T19:09:27.954Z,23.10
2018-09-15T19:11:56.321Z,23.10
2018-09-15T19:14:24.676Z,23.10
2018-09-15T19:16:53.078Z,23.10
2018-09-15T19:19:21.406Z,23.10
2018-09-15T19:21:50.076Z,23.10
2018-09-15T19:24:19.453Z,23.10
2018-09-15T19:26:47.814Z,23.00
2018-09-15T19:29:16.058Z,23.00
2018-09-15T19:31:44.454Z,23.00
2018-09-15T19:34:12.749Z,23.00
2018-09-15T19:36:42.115Z,23.00
2018-09-15T19:39:12.512Z,23.00
2018-09-15T19:41:40.715Z,23.00
2018-09-15T19:44:09.170Z,23.00
2018-09-15T19:46:38.050Z,23.00
2018-09-15T19:49:06.851Z,23.00
2018-09-15T19:51:35.172Z,23.00
2018-09-15T19:54:03.469Z,23.00
2018-09-15T19:56:31.787Z,23.00
2018-09-15T19:59:00.135Z,23.00
2018-09-15T20:01:28.579Z,22.90
2018-09-15T20:03:56.865Z,22.90
2018-09-15T20:06:25.163Z,23.00
2018-09-15T20:08:53.495Z,22.90
2018-09-15T20:11:21.773Z,22.90
2018-09-15T20:13:50.172Z,22.90
2018-09-15T20:16:17.429Z,22.90
2018-09-15T20:18:44.649Z,22.90
2018-09-15T20:21:11.881Z,22.90
2018-09-15T20:23:41.202Z,22.90
2018-09-15T20:26:09.512Z,22.90
2018-09-15T20:28:37.825Z,22.90
2018-09-15T20:31:06.413Z,22.90
2018-09-15T20:33:34.734Z,22.90
2018-09-15T20:36:03.040Z,22.90
2018-09-15T20:38:31.299Z,22.90
2018-09-15T20:40:59.584Z,22.90
2018-09-15T20:43:27.992Z,22.90
2018-09-15T20:45:56.341Z,22.80
2018-09-15T20:48:25.659Z,22.80
2018-09-15T20:50:53.942Z,22.80
2018-09-15T20:55:50.343Z,22.80
2018-09-15T20:58:19.260Z,22.60
2018-09-15T21:00:48.293Z,22.30
2018-09-15T21:03:18.235Z,21.90
2018-09-15T21:05:47.370Z,21.30
2018-09-15T21:08:16.977Z,20.70
2018-09-15T21:10:45.895Z,20.40
2018-09-15T21:13:16.073Z,20.20
2018-09-15T21:15:45.266Z,20.10
2018-09-15T21:18:15.468Z,19.80
2018-09-15T21:20:44.522Z,19.50
2018-09-15T21:23:13.572Z,19.40
2018-09-15T21:25:44.769Z,19.30
2018-09-15T21:28:13.120Z,19.30
2018-09-15T21:30:41.437Z,19.20
2018-09-15T21:33:09.736Z,19.10
2018-09-15T21:35:38.052Z,19.00
2018-09-15T21:38:07.353Z,19.10
2018-09-15T21:40:35.667Z,19.00
2018-09-15T21:43:03.949Z,18.90
2018-09-15T21:45:32.303Z,18.90
2018-09-15T21:48:00.614Z,18.70
2018-09-15T21:50:28.914Z,18.60
2018-09-15T21:52:57.220Z,18.60
2018-09-15T21:55:26.263Z,18.50
2018-09-15T21:57:54.595Z,18.50
2018-09-15T22:00:22.920Z,18.50
2018-09-15T22:02:51.252Z,18.60
2018-09-15T22:05:19.543Z,18.60
2018-09-15T22:07:47.847Z,18.50
2018-09-15T22:10:16.933Z,18.50
2018-09-15T22:12:45.848Z,18.40
2018-09-15T22:15:32.336Z,18.50
2018-09-15T22:18:02.623Z,18.40
2018-09-15T22:20:31.966Z,18.30
2018-09-15T22:23:01.295Z,18.40
2018-09-15T22:25:30.590Z,18.40
2018-09-15T22:27:59.587Z,18.50
2018-09-15T22:30:28.630Z,18.50
2018-09-15T22:32:58.101Z,18.50
2018-09-15T22:35:27.122Z,18.40
2018-09-15T22:37:56.089Z,18.40
2018-09-15T22:40:25.276Z,18.30
2018-09-15T22:42:53.676Z,18.40
2018-09-15T22:45:24.359Z,18.40
2018-09-15T22:47:54.342Z,18.40
2018-09-15T22:50:23.349Z,18.30
2018-09-15T22:52:52.434Z,18.30
2018-09-15T22:55:24.947Z,18.30
2018-09-15T22:57:53.939Z,18.20
2018-09-15T23:00:23.039Z,18.20
2018-09-15T23:02:52.088Z,18.20
2018-09-15T23:05:21.107Z,18.30
2018-09-15T23:07:50.141Z,18.20
2018-09-15T23:10:20.423Z,18.10
2018-09-15T23:12:49.163Z,18.00
2018-09-15T23:15:19.372Z,18.00
2018-09-15T23:17:49.430Z,17.90
2018-09-15T23:20:18.596Z,17.90
2018-09-15T23:22:48.818Z,18.00
2018-09-15T23:25:17.581Z,18.00
2018-09-15T23:27:46.550Z,18.00
2018-09-15T23:30:15.719Z,17.90
2018-09-15T23:32:44.910Z,17.90
2018-09-15T23:35:14.181Z,17.90
2018-09-15T23:37:43.216Z,17.80
2018-09-15T23:40:12.434Z,17.70
2018-09-15T23:42:41.281Z,17.70
2018-09-15T23:45:10.208Z,17.50
2018-09-15T23:47:38.537Z,17.60
2018-09-15T23:50:07.544Z,17.50
2018-09-15T23:52:37.606Z,17.60
2018-09-15T23:55:06.951Z,17.70
2018-09-15T23:57:35.177Z,17.70
